Time;durP1;ratioP1;P1;durP2;ratioP2;P2;SDS_P1;SDS_P2;PMS_P1;PMS_P2;Temp;Humidity;BMP_temperature;BMP_pressure;BME280_temperature;BME280_humidity;BME280_pressure;Samples;Min_cycle;Max_cycle;Signal;HPM_P1;HPM_P2
2022/08/16 07:40:38;;;;;;;;;9.00;9.00;;;;;;;;5105272;27;1555185;-75
2022/08/16 07:43:03;;;;;;;;;10.75;9.00;;;;;;;;5145051;27;20695;-73
2022/08/16 07:45:29;;;;;;;;;8.00;6.50;;;;;;;;5144113;27;16465;-73
2022/08/16 07:47:54;;;;;;;;;9.00;9.00;;;;;;;;5143766;27;21934;-76
2022/08/16 07:50:20;;;;;;;;;10.50;9.50;;;;;;;;5134772;27;12396;-75
2022/08/16 07:52:45;;;;;;;;;9.25;9.25;;;;;;;;5140887;27;21391;-78
2022/08/16 07:55:12;;;;;;;;;10.25;9.75;;;;;;;;5139862;27;21693;-78
2022/08/16 07:57:38;;;;;;;;;9.75;8.00;;;;;;;;5145466;27;21676;-80
2022/08/16 08:00:04;;;;;;;;;11.00;9.50;;;;;;;;5145120;27;21451;-74
2022/08/16 08:02:29;;;;;;;;;10.00;8.33;;;;;;;;5144505;27;21863;-74
2022/08/16 08:04:55;;;;;;;;;9.67;9.00;;;;;;;;5144001;27;11128;-73
2022/08/16 08:07:20;;;;;;;;;8.33;7.00;;;;;;;;5125023;27;23865;-75
2022/08/16 08:09:45;;;;;;;;;10.00;9.00;;;;;;;;5145317;27;10262;-73
2022/08/16 08:12:11;;;;;;;;;11.33;10.00;;;;;;;;5145002;27;21387;-73
2022/08/16 08:14:38;;;;;;;;;8.00;8.00;;;;;;;;5146893;27;21575;-74
2022/08/16 08:17:06;;;;;;;;;9.00;8.25;;;;;;;;5149741;27;22430;-72
2022/08/16 08:19:34;;;;;;;;;5.50;5.50;;;;;;;;5156282;27;11892;-72
2022/08/16 08:22:00;;;;;;;;;7.00;7.00;;;;;;;;5155993;27;11568;-73
2022/08/16 08:24:26;;;;;;;;;8.33;7.00;;;;;;;;5156039;27;11744;-73
2022/08/16 08:26:52;;;;;;;;;8.00;6.25;;;;;;;;5156364;27;9508;-73
2022/08/16 08:29:18;;;;;;;;;7.00;7.00;;;;;;;;5156247;27;10367;-72
2022/08/16 08:31:43;;;;;;;;;5.33;4.00;;;;;;;;5156140;27;11385;-72
2022/08/16 08:34:08;;;;;;;;;6.00;6.00;;;;;;;;5155991;27;10807;-72
2022/08/16 08:36:37;;;;;;;;;7.00;6.00;;;;;;;;5155941;27;10292;-73
2022/08/16 08:39:04;;;;;;;;;10.00;8.00;;;;;;;;5155922;27;8832;-72
2022/08/16 08:41:30;;;;;;;;;6.50;6.00;;;;;;;;5155396;27;21455;-73
2022/08/16 08:43:56;;;;;;;;;9.00;6.00;;;;;;;;5156245;27;21571;-73
2022/08/16 08:46:22;;;;;;;;;6.00;6.00;;;;;;;;5156083;27;9039;-72
2022/08/16 08:48:49;;;;;;;;;7.00;7.00;;;;;;;;5156411;27;8785;-73
2022/08/16 08:51:17;;;;;;;;;7.00;7.00;;;;;;;;5145907;27;8936;-72
2022/08/16 08:53:43;;;;;;;;;8.50;7.00;;;;;;;;5142413;27;8778;-73
2022/08/16 08:56:08;;;;;;;;;7.00;7.00;;;;;;;;5141905;27;8941;-73
2022/08/16 08:58:35;;;;;;;;;8.00;7.00;;;;;;;;5141750;27;10698;-73
2022/08/16 09:01:01;;;;;;;;;8.00;6.75;;;;;;;;5142459;27;8812;-72
2022/08/16 09:03:27;;;;;;;;;6.75;6.75;;;;;;;;5142299;27;8915;-72
2022/08/16 09:05:52;;;;;;;;;5.00;5.00;;;;;;;;5142262;27;8798;-73
2022/08/16 09:08:17;;;;;;;;;5.67;5.67;;;;;;;;5141393;27;11485;-73
2022/08/16 09:10:43;;;;;;;;;6.00;6.00;;;;;;;;5141935;27;8876;-73
2022/08/16 09:13:09;;;;;;;;;7.00;7.00;;;;;;;;5141739;27;11613;-73
2022/08/16 09:15:34;;;;;;;;;7.00;6.00;;;;;;;;5141644;27;8849;-72
2022/08/16 09:18:03;;;;;;;;;7.25;6.75;;;;;;;;5142601;27;8790;-73
2022/08/16 09:20:29;;;;;;;;;7.60;5.80;;;;;;;;5141452;27;9007;-72
2022/08/16 09:22:54;;;;;;;;;7.25;5.50;;;;;;;;5142455;27;9580;-72
2022/08/16 09:25:20;;;;;;;;;7.50;6.50;;;;;;;;5142326;27;9651;-73
2022/08/16 09:27:45;;;;;;;;;6.00;6.00;;;;;;;;5142079;27;9460;-72
2022/08/16 09:30:11;;;;;;;;;5.75;5.75;;;;;;;;5142044;27;11314;-72
2022/08/16 09:32:36;;;;;;;;;7.00;6.75;;;;;;;;5141714;27;11384;-73
2022/08/16 09:35:03;;;;;;;;;6.25;5.50;;;;;;;;5141186;27;10517;-72
2022/08/16 09:37:29;;;;;;;;;8.60;7.00;;;;;;;;5141505;27;11634;-72
2022/08/16 09:39:54;;;;;;;;;5.80;5.80;;;;;;;;5141649;27;11811;-72
2022/08/16 09:42:20;;;;;;;;;7.75;6.00;;;;;;;;5142166;27;11998;-72
2022/08/16 09:44:45;;;;;;;;;6.00;5.25;;;;;;;;5141674;27;11297;-73
2022/08/16 09:47:11;;;;;;;;;7.50;6.00;;;;;;;;5122866;27;11998;-72
2022/08/16 09:49:36;;;;;;;;;7.00;6.00;;;;;;;;5141551;27;11898;-74
2022/08/16 09:52:02;;;;;;;;;5.75;5.75;;;;;;;;5137827;27;8824;-79
2022/08/16 09:54:27;;;;;;;;;5.00;5.00;;;;;;;;5101612;28;11822;-75
2022/08/16 09:56:52;;;;;;;;;6.50;5.50;;;;;;;;5118896;28;8915;-75
2022/08/16 09:59:17;;;;;;;;;5.00;4.75;;;;;;;;5120896;28;11365;-79
2022/08/16 10:01:47;;;;;;;;;6.00;4.00;;;;;;;;5100583;28;11654;-75
2022/08/16 10:04:13;;;;;;;;;6.40;5.20;;;;;;;;5098080;28;13589;-75
2022/08/16 10:06:38;;;;;;;;;9.00;6.00;;;;;;;;5099878;28;10399;-75
2022/08/16 10:09:05;;;;;;;;;5.50;5.50;;;;;;;;5099587;28;11548;-81
2022/08/16 10:14:14;;;;;;;;;6.00;6.00;;;;;;;;5119861;28;11345;-75
2022/08/16 10:16:39;;;;;;;;;6.50;5.50;;;;;;;;5120401;28;11547;-75
2022/08/16 10:19:04;;;;;;;;;6.00;6.00;;;;;;;;5120247;28;10248;-75
2022/08/16 10:21:30;;;;;;;;;7.00;6.00;;;;;;;;5118506;28;10322;-77
2022/08/16 10:23:56;;;;;;;;;7.00;5.00;;;;;;;;5117899;28;8796;-75
2022/08/16 10:26:25;;;;;;;;;6.25;6.00;;;;;;;;5119938;28;9000;-77
2022/08/16 10:28:51;;;;;;;;;5.00;5.00;;;;;;;;5120136;28;10654;-76
2022/08/16 10:31:16;;;;;;;;;4.75;4.75;;;;;;;;5118154;28;11792;-72
2022/08/16 10:33:42;;;;;;;;;7.33;5.00;;;;;;;;5119593;28;12054;-74
2022/08/16 10:36:07;;;;;;;;;5.00;3.33;;;;;;;;5119534;28;11858;-74
2022/08/16 10:38:34;;;;;;;;;5.33;5.33;;;;;;;;5118923;28;11867;-74
2022/08/16 10:41:00;;;;;;;;;5.00;5.00;;;;;;;;5118802;28;9664;-73
2022/08/16 10:43:26;;;;;;;;;5.00;5.00;;;;;;;;5118663;28;8805;-73
2022/08/16 10:45:51;;;;;;;;;5.67;5.67;;;;;;;;5119924;28;8784;-72
2022/08/16 10:48:17;;;;;;;;;7.33;6.67;;;;;;;;5119437;28;8969;-71
2022/08/16 10:50:42;;;;;;;;;5.00;5.00;;;;;;;;5119041;28;10625;-70
2022/08/16 10:53:07;;;;;;;;;6.00;6.00;;;;;;;;5116412;28;12506;-70
2022/08/16 10:55:35;;;;;;;;;7.00;6.00;;;;;;;;5118769;28;9137;-71
2022/08/16 10:58:01;;;;;;;;;9.50;7.25;;;;;;;;5119185;28;8879;-70
2022/08/16 11:00:27;;;;;;;;;7.33;6.00;;;;;;;;5119048;28;11445;-71
2022/08/16 11:02:52;;;;;;;;;7.00;6.67;;;;;;;;5117319;28;11285;-73
2022/08/16 11:05:17;;;;;;;;;5.00;5.00;;;;;;;;5119070;28;12276;-72
2022/08/16 11:07:48;;;;;;;;;5.33;5.33;;;;;;;;5118610;28;11563;-72
2022/08/16 11:10:15;;;;;;;;;6.00;6.00;;;;;;;;5115712;28;8812;-72
2022/08/16 11:12:40;;;;;;;;;5.50;5.50;;;;;;;;5117638;28;12801;-74
2022/08/16 11:15:05;;;;;;;;;6.67;6.00;;;;;;;;5118529;27;11373;-74
2022/08/16 11:17:30;;;;;;;;;4.00;4.00;;;;;;;;5118864;28;11292;-72
2022/08/16 11:19:56;;;;;;;;;6.67;5.67;;;;;;;;5118515;28;10537;-74
2022/08/16 11:22:21;;;;;;;;;4.67;4.00;;;;;;;;5117199;28;11560;-71
2022/08/16 11:24:47;;;;;;;;;6.00;6.00;;;;;;;;5117848;28;11539;-72
2022/08/16 11:27:14;;;;;;;;;7.00;4.00;;;;;;;;5118234;28;10819;-71
2022/08/16 11:29:39;;;;;;;;;6.50;6.50;;;;;;;;5118783;28;10322;-72
2022/08/16 11:32:05;;;;;;;;;7.67;7.00;;;;;;;;5117009;28;11337;-72
2022/08/16 11:34:31;;;;;;;;;5.33;5.33;;;;;;;;5118422;28;11280;-72
2022/08/16 11:36:56;;;;;;;;;7.00;6.00;;;;;;;;5119191;28;11530;-72
2022/08/16 11:39:21;;;;;;;;;7.00;6.00;;;;;;;;5118878;28;11296;-72
2022/08/16 11:41:47;;;;;;;;;7.33;7.33;;;;;;;;5118600;28;8851;-71
2022/08/16 11:44:12;;;;;;;;;6.33;5.00;;;;;;;;5118432;28;10604;-71
2022/08/16 11:46:37;;;;;;;;;7.00;6.00;;;;;;;;5119045;28;11323;-71
2022/08/16 11:49:03;;;;;;;;;8.67;7.00;;;;;;;;5119116;28;10272;-71
2022/08/16 11:51:29;;;;;;;;;8.00;5.67;;;;;;;;5119940;27;10833;-72
2022/08/16 11:53:54;;;;;;;;;7.33;6.67;;;;;;;;5119066;27;10651;-71
2022/08/16 11:56:20;;;;;;;;;7.67;7.67;;;;;;;;5118655;28;10286;-71
2022/08/16 11:58:48;;;;;;;;;10.67;9.33;;;;;;;;5118620;28;9440;-71
2022/08/16 12:01:14;;;;;;;;;6.25;5.75;;;;;;;;5118815;28;23041;-71
2022/08/16 12:03:39;;;;;;;;;7.00;6.00;;;;;;;;5099807;28;21702;-71
2022/08/16 12:06:08;;;;;;;;;5.33;5.33;;;;;;;;5118776;28;11360;-70
2022/08/16 12:08:33;;;;;;;;;7.75;7.50;;;;;;;;5118198;28;12681;-71
2022/08/16 12:10:59;;;;;;;;;7.33;6.33;;;;;;;;5118571;28;11521;-70
2022/08/16 12:13:24;;;;;;;;;11.33;8.67;;;;;;;;5118178;28;10445;-71
2022/08/16 12:15:50;;;;;;;;;8.00;8.00;;;;;;;;5099168;28;23577;-72
2022/08/16 12:18:15;;;;;;;;;10.00;7.33;;;;;;;;5118247;28;21640;-71
2022/08/16 12:20:42;;;;;;;;;9.00;8.00;;;;;;;;5117812;28;22432;-72
2022/08/16 12:23:07;;;;;;;;;8.00;6.75;;;;;;;;5118305;28;21658;-71
2022/08/16 12:25:34;;;;;;;;;10.33;9.33;;;;;;;;5119274;27;11305;-71
2022/08/16 12:27:59;;;;;;;;;9.00;7.75;;;;;;;;5121371;28;22564;-71
2022/08/16 12:30:27;;;;;;;;;8.00;8.00;;;;;;;;5121349;28;21445;-72
2022/08/16 12:32:53;;;;;;;;;8.00;6.00;;;;;;;;5116760;28;11520;-71
2022/08/16 12:35:19;;;;;;;;;5.33;5.33;;;;;;;;5102655;28;8812;-76
2022/08/16 12:37:46;;;;;;;;;7.25;6.25;;;;;;;;5120959;28;11569;-72
2022/08/16 12:40:13;;;;;;;;;9.00;8.00;;;;;;;;5120140;28;8789;-71
2022/08/16 12:42:39;;;;;;;;;7.50;6.25;;;;;;;;5121273;28;12304;-73
2022/08/16 12:45:06;;;;;;;;;8.33;6.00;;;;;;;;5121780;28;11273;-74
2022/08/16 12:50:15;;;;;;;;;5.25;5.00;;;;;;;;5116269;28;11343;-71
2022/08/16 12:52:40;;;;;;;;;5.00;5.00;;;;;;;;5121268;28;9543;-73
2022/08/16 12:55:05;;;;;;;;;7.00;5.67;;;;;;;;5121240;28;8891;-71
2022/08/16 12:57:31;;;;;;;;;7.00;6.00;;;;;;;;5121194;28;11629;-70
2022/08/16 12:59:57;;;;;;;;;5.67;5.67;;;;;;;;5120661;28;9438;-71
2022/08/16 13:02:22;;;;;;;;;4.00;4.00;;;;;;;;5121266;28;11277;-71
2022/08/16 13:04:47;;;;;;;;;2.67;2.33;;;;;;;;5120821;28;11572;-72
2022/08/16 13:07:13;;;;;;;;;8.33;7.67;;;;;;;;5120638;28;11522;-72
2022/08/16 13:09:50;;;;;;;;;6.50;5.75;;;;;;;;5120268;28;11391;-72
2022/08/16 13:12:22;;;;;;;;;7.00;7.00;;;;;;;;5118303;28;11873;-72
2022/08/16 13:14:48;;;;;;;;;12.00;10.00;;;;;;;;5120361;28;11551;-70
2022/08/16 13:17:15;;;;;;;;;8.00;7.00;;;;;;;;5120027;28;22772;-70
2022/08/16 13:19:41;;;;;;;;;10.00;7.50;;;;;;;;5119856;28;22759;-71
2022/08/16 13:22:07;;;;;;;;;8.67;8.67;;;;;;;;5120725;28;21398;-71
2022/08/16 13:24:33;;;;;;;;;12.75;9.25;;;;;;;;5120152;28;21548;-70
2022/08/16 13:26:58;;;;;;;;;5.00;5.00;;;;;;;;5119745;28;22816;-71
2022/08/16 13:29:24;;;;;;;;;9.00;6.00;;;;;;;;5119897;28;21675;-72
2022/08/16 13:31:49;;;;;;;;;8.00;7.00;;;;;;;;5120292;28;8924;-70
2022/08/16 13:34:17;;;;;;;;;8.00;8.00;;;;;;;;5120792;28;8945;-70
2022/08/16 13:36:42;;;;;;;;;12.75;11.00;;;;;;;;5101071;28;9798;-71
2022/08/16 13:39:08;;;;;;;;;8.00;7.67;;;;;;;;5119145;28;22222;-71
2022/08/16 13:41:34;;;;;;;;;9.75;9.00;;;;;;;;5119718;28;22233;-71
2022/08/16 13:44:00;;;;;;;;;11.00;9.00;;;;;;;;5120902;28;11436;-70
2022/08/16 13:46:26;;;;;;;;;7.25;7.25;;;;;;;;5119979;28;17622;-71
2022/08/16 13:48:51;;;;;;;;;10.00;8.50;;;;;;;;5119726;28;22073;-71
2022/08/16 13:51:18;;;;;;;;;12.00;10.00;;;;;;;;5120311;28;21391;-71
2022/08/16 13:53:47;;;;;;;;;13.00;9.50;;;;;;;;5119620;28;22760;-71
2022/08/16 13:56:12;;;;;;;;;7.25;7.00;;;;;;;;5120226;28;23469;-72
2022/08/16 13:58:38;;;;;;;;;7.00;7.00;;;;;;;;5120127;28;23079;-73
2022/08/16 14:01:03;;;;;;;;;8.67;7.00;;;;;;;;5120584;28;8827;-72
2022/08/16 14:03:29;;;;;;;;;11.67;10.00;;;;;;;;5119845;28;9035;-73
2022/08/16 14:05:54;;;;;;;;;8.33;8.33;;;;;;;;5120001;28;22467;-72
2022/08/16 14:08:19;;;;;;;;;1.67;0.00;;;;;;;;5119511;28;22355;-72
2022/08/16 14:10:45;;;;;;;;;9.00;8.00;;;;;;;;5120076;28;11462;-72
2022/08/16 14:13:11;;;;;;;;;11.00;9.00;;;;;;;;5119565;28;10350;-73
2022/08/16 14:15:36;;;;;;;;;9.00;9.00;;;;;;;;5100156;28;21921;-72
2022/08/16 14:18:02;;;;;;;;;10.33;10.00;;;;;;;;5119213;28;16731;-73
2022/08/16 14:20:27;;;;;;;;;7.33;7.00;;;;;;;;5099990;28;24542;-72
2022/08/16 14:22:53;;;;;;;;;10.67;9.33;;;;;;;;5118325;28;22718;-72
2022/08/16 14:25:19;;;;;;;;;9.33;9.33;;;;;;;;5126186;27;21534;-73
2022/08/16 14:27:45;;;;;;;;;10.25;10.25;;;;;;;;5127662;27;17375;-73
2022/08/16 14:30:12;;;;;;;;;12.67;11.67;;;;;;;;5128570;27;22219;-71
2022/08/16 14:32:38;;;;;;;;;8.25;7.00;;;;;;;;5128957;27;11597;-74
2022/08/16 14:35:05;;;;;;;;;9.00;9.00;;;;;;;;5118110;27;22738;-74
2022/08/16 14:37:31;;;;;;;;;11.00;9.25;;;;;;;;5118404;28;11011;-74
2022/08/16 14:39:56;;;;;;;;;6.67;6.67;;;;;;;;5118705;28;22524;-74
2022/08/16 14:42:22;;;;;;;;;11.00;10.33;;;;;;;;5119129;28;22855;-73
2022/08/16 14:44:47;;;;;;;;;9.00;9.00;;;;;;;;5115386;28;23465;-74
2022/08/16 14:47:13;;;;;;;;;9.67;9.67;;;;;;;;5118308;28;23499;-72
2022/08/16 14:49:39;;;;;;;;;10.33;10.33;;;;;;;;5118721;27;8804;-74
2022/08/16 14:52:08;;;;;;;;;9.00;9.00;;;;;;;;5118185;28;22276;-74
2022/08/16 14:54:34;;;;;;;;;11.75;10.00;;;;;;;;5118930;28;23425;-71
2022/08/16 14:57:00;;;;;;;;;10.00;10.00;;;;;;;;5117977;28;22410;-73
2022/08/16 14:59:25;;;;;;;;;10.00;8.00;;;;;;;;5119556;28;10431;-71
